sensor_id;sensor_type;location;lat;lon;timestamp;P1;P2;P0
65383;PMS5003;51986;52.788;41.368;2022-07-29T00:02:25;47.00;38.00;30.25
65383;PMS5003;51986;52.788;41.368;2022-07-29T00:04:53;49.75;40.00;32.00
65383;PMS5003;51986;52.788;41.368;2022-07-29T00:07:20;47.00;38.00;30.00
65383;PMS5003;51986;52.788;41.368;2022-07-29T00:09:47;46.00;37.00;30.25
65383;PMS5003;51986;52.788;41.368;2022-07-29T00:12:20;46.00;38.00;31.50
65383;PMS5003;51986;52.788;41.368;2022-07-29T00:14:55;46.00;38.00;31.50
65383;PMS5003;51986;52.788;41.368;2022-07-29T00:17:23;46.00;38.00;31.00
65383;PMS5003;51986;52.788;41.368;2022-07-29T00:19:57;47.00;38.00;31.00
65383;PMS5003;51986;52.788;41.368;2022-07-29T00:22:24;46.50;37.75;31.00
65383;PMS5003;51986;52.788;41.368;2022-07-29T00:24:53;47.25;38.75;30.50
65383;PMS5003;51986;52.788;41.368;2022-07-29T00:27:20;50.75;41.50;34.00
65383;PMS5003;51986;52.788;41.368;2022-07-29T00:32:40;48.00;39.00;33.00
65383;PMS5003;51986;52.788;41.368;2022-07-29T00:35:07;47.00;38.00;32.00
65383;PMS5003;51986;52.788;41.368;2022-07-29T00:37:35;46.00;37.00;31.00
65383;PMS5003;51986;52.788;41.368;2022-07-29T00:40:02;46.00;37.00;30.00
65383;PMS5003;51986;52.788;41.368;2022-07-29T00:42:29;45.75;37.00;30.00
65383;PMS5003;51986;52.788;41.368;2022-07-29T00:44:56;46.50;37.00;29.00
65383;PMS5003;51986;52.788;41.368;2022-07-29T00:47:26;47.50;37.50;29.50
65383;PMS5003;51986;52.788;41.368;2022-07-29T00:49:53;46.50;37.00;30.00
65383;PMS5003;51986;52.788;41.368;2022-07-29T00:52:20;47.00;38.00;29.75
65383;PMS5003;51986;52.788;41.368;2022-07-29T00:54:46;46.00;37.00;30.00
65383;PMS5003;51986;52.788;41.368;2022-07-29T00:57:13;46.00;37.50;29.50
65383;PMS5003;51986;52.788;41.368;2022-07-29T00:59:41;46.00;37.00;29.50
65383;PMS5003;51986;52.788;41.368;2022-07-29T01:02:08;46.00;38.00;30.75
65383;PMS5003;51986;52.788;41.368;2022-07-29T01:04:35;46.00;37.00;30.50
65383;PMS5003;51986;52.788;41.368;2022-07-29T01:07:02;46.00;37.00;30.00
65383;PMS5003;51986;52.788;41.368;2022-07-29T01:09:33;46.00;38.00;31.00
65383;PMS5003;51986;52.788;41.368;2022-07-29T01:12:17;48.50;39.00;32.50
65383;PMS5003;51986;52.788;41.368;2022-07-29T01:14:48;46.00;37.00;31.00
65383;PMS5003;51986;52.788;41.368;2022-07-29T01:19:58;45.25;37.00;29.00
65383;PMS5003;51986;52.788;41.368;2022-07-29T01:22:54;45.00;36.00;28.50
65383;PMS5003;51986;52.788;41.368;2022-07-29T01:26:10;45.00;37.00;29.50
65383;PMS5003;51986;52.788;41.368;2022-07-29T01:29:28;46.00;37.00;29.50
65383;PMS5003;51986;52.788;41.368;2022-07-29T01:32:10;46.00;37.00;30.25
65383;PMS5003;51986;52.788;41.368;2022-07-29T01:40:16;50.00;40.00;33.00
65383;PMS5003;51986;52.788;41.368;2022-07-29T01:43:09;47.25;37.00;31.00
65383;PMS5003;51986;52.788;41.368;2022-07-29T01:51:13;47.00;37.00;30.00
65383;PMS5003;51986;52.788;41.368;2022-07-29T01:53:54;45.25;36.75;29.50
65383;PMS5003;51986;52.788;41.368;2022-07-29T01:56:45;45.00;37.00;29.50
65383;PMS5003;51986;52.788;41.368;2022-07-29T01:59:17;45.00;37.00;29.00
65383;PMS5003;51986;52.788;41.368;2022-07-29T02:01:46;45.75;37.00;29.00
65383;PMS5003;51986;52.788;41.368;2022-07-29T02:04:20;45.25;37.50;28.50
65383;PMS5003;51986;52.788;41.368;2022-07-29T02:06:57;46.00;37.00;30.00
65383;PMS5003;51986;52.788;41.368;2022-07-29T02:09:28;45.50;37.00;31.00
65383;PMS5003;51986;52.788;41.368;2022-07-29T02:11:56;46.00;37.25;30.50
65383;PMS5003;51986;52.788;41.368;2022-07-29T02:14:26;48.00;38.00;31.00
65383;PMS5003;51986;52.788;41.368;2022-07-29T02:16:57;46.00;37.00;30.00
65383;PMS5003;51986;52.788;41.368;2022-07-29T02:19:27;45.00;36.50;29.00
65383;PMS5003;51986;52.788;41.368;2022-07-29T02:21:55;47.00;38.00;31.00
65383;PMS5003;51986;52.788;41.368;2022-07-29T02:24:25;44.50;36.00;29.00
65383;PMS5003;51986;52.788;41.368;2022-07-29T02:26:53;45.00;36.00;30.00
65383;PMS5003;51986;52.788;41.368;2022-07-29T02:29:23;45.00;37.00;29.00
65383;PMS5003;51986;52.788;41.368;2022-07-29T02:31:52;44.50;36.00;28.00
65383;PMS5003;51986;52.788;41.368;2022-07-29T02:34:20;45.75;37.00;30.00
65383;PMS5003;51986;52.788;41.368;2022-07-29T02:36:52;47.00;38.00;30.00
65383;PMS5003;51986;52.788;41.368;2022-07-29T02:39:22;46.00;37.00;30.00
65383;PMS5003;51986;52.788;41.368;2022-07-29T02:41:55;46.00;37.00;29.00
65383;PMS5003;51986;52.788;41.368;2022-07-29T02:44:27;44.50;36.00;29.50
65383;PMS5003;51986;52.788;41.368;2022-07-29T02:52:58;45.00;36.00;30.00
65383;PMS5003;51986;52.788;41.368;2022-07-29T02:55:30;45.00;36.50;30.00
65383;PMS5003;51986;52.788;41.368;2022-07-29T02:58:02;45.25;37.25;30.00
65383;PMS5003;51986;52.788;41.368;2022-07-29T03:00:36;46.50;38.00;31.00
65383;PMS5003;51986;52.788;41.368;2022-07-29T03:03:07;46.00;37.00;30.00
65383;PMS5003;51986;52.788;41.368;2022-07-29T03:05:37;45.50;37.00;30.00
65383;PMS5003;51986;52.788;41.368;2022-07-29T03:08:07;45.75;37.00;31.25
65383;PMS5003;51986;52.788;41.368;2022-07-29T03:10:40;46.50;37.50;31.00
65383;PMS5003;51986;52.788;41.368;2022-07-29T03:13:10;46.00;37.00;31.00
65383;PMS5003;51986;52.788;41.368;2022-07-29T03:15:39;47.00;38.00;31.75
65383;PMS5003;51986;52.788;41.368;2022-07-29T03:18:06;48.50;38.00;32.50
65383;PMS5003;51986;52.788;41.368;2022-07-29T03:20:33;48.00;39.00;32.00
65383;PMS5003;51986;52.788;41.368;2022-07-29T03:23:00;46.25;38.00;32.00
65383;PMS5003;51986;52.788;41.368;2022-07-29T03:25:27;47.00;38.00;31.00
65383;PMS5003;51986;52.788;41.368;2022-07-29T03:27:54;46.50;38.00;29.00
65383;PMS5003;51986;52.788;41.368;2022-07-29T03:30:21;49.00;39.00;31.00
65383;PMS5003;51986;52.788;41.368;2022-07-29T03:32:49;48.75;40.00;31.75
65383;PMS5003;51986;52.788;41.368;2022-07-29T03:35:19;47.25;39.00;31.00
65383;PMS5003;51986;52.788;41.368;2022-07-29T03:37:46;49.00;40.00;33.25
65383;PMS5003;51986;52.788;41.368;2022-07-29T03:40:18;49.00;40.00;34.00
65383;PMS5003;51986;52.788;41.368;2022-07-29T03:42:49;51.00;42.00;34.00
65383;PMS5003;51986;52.788;41.368;2022-07-29T03:45:20;49.50;41.00;33.75
65383;PMS5003;51986;52.788;41.368;2022-07-29T03:47:50;49.50;40.50;34.00
65383;PMS5003;51986;52.788;41.368;2022-07-29T03:50:27;49.50;40.50;34.00
65383;PMS5003;51986;52.788;41.368;2022-07-29T03:52:57;52.00;42.00;35.00
65383;PMS5003;51986;52.788;41.368;2022-07-29T03:55:25;51.00;41.00;35.50
65383;PMS5003;51986;52.788;41.368;2022-07-29T04:00:48;54.25;43.75;38.25
65383;PMS5003;51986;52.788;41.368;2022-07-29T04:03:16;56.00;45.00;40.75
65383;PMS5003;51986;52.788;41.368;2022-07-29T04:05:43;52.50;44.00;39.00
65383;PMS5003;51986;52.788;41.368;2022-07-29T04:08:10;51.00;42.00;36.00
65383;PMS5003;51986;52.788;41.368;2022-07-29T04:10:37;49.50;40.25;34.00
65383;PMS5003;51986;52.788;41.368;2022-07-29T04:13:04;52.00;43.00;35.50
65383;PMS5003;51986;52.788;41.368;2022-07-29T04:15:31;51.00;41.50;37.00
65383;PMS5003;51986;52.788;41.368;2022-07-29T04:17:59;50.00;41.00;35.00
65383;PMS5003;51986;52.788;41.368;2022-07-29T04:20:26;51.00;40.50;34.00
65383;PMS5003;51986;52.788;41.368;2022-07-29T04:22:53;50.00;39.00;33.00
65383;PMS5003;51986;52.788;41.368;2022-07-29T04:25:20;49.50;40.00;33.50
65383;PMS5003;51986;52.788;41.368;2022-07-29T04:27:46;49.00;40.00;34.00
65383;PMS5003;51986;52.788;41.368;2022-07-29T04:30:13;49.00;40.00;34.00
65383;PMS5003;51986;52.788;41.368;2022-07-29T04:32:42;48.50;40.00;34.25
65383;PMS5003;51986;52.788;41.368;2022-07-29T04:35:09;48.50;39.00;34.00
65383;PMS5003;51986;52.788;41.368;2022-07-29T04:37:36;49.25;40.75;33.75
65383;PMS5003;51986;52.788;41.368;2022-07-29T04:40:03;50.00;39.00;33.00
65383;PMS5003;51986;52.788;41.368;2022-07-29T04:42:31;49.00;39.00;33.00
65383;PMS5003;51986;52.788;41.368;2022-07-29T04:44:58;48.00;39.75;34.00
65383;PMS5003;51986;52.788;41.368;2022-07-29T04:47:26;48.50;39.75;33.75
65383;PMS5003;51986;52.788;41.368;2022-07-29T04:49:53;49.00;40.00;34.00
65383;PMS5003;51986;52.788;41.368;2022-07-29T04:52:20;48.00;39.00;33.25
65383;PMS5003;51986;52.788;41.368;2022-07-29T04:54:47;49.00;40.00;33.00
65383;PMS5003;51986;52.788;41.368;2022-07-29T04:57:14;49.00;39.00;32.00
65383;PMS5003;51986;52.788;41.368;2022-07-29T04:59:41;49.50;40.00;34.00
65383;PMS5003;51986;52.788;41.368;2022-07-29T05:02:08;50.00;41.00;34.75
65383;PMS5003;51986;52.788;41.368;2022-07-29T05:05:04;49.50;40.75;34.50
65383;PMS5003;51986;52.788;41.368;2022-07-29T05:07:45;49.00;40.00;34.50
65383;PMS5003;51986;52.788;41.368;2022-07-29T05:10:12;50.50;41.00;35.00
65383;PMS5003;51986;52.788;41.368;2022-07-29T05:12:39;49.00;40.00;34.00
65383;PMS5003;51986;52.788;41.368;2022-07-29T05:15:06;49.00;40.50;33.00
65383;PMS5003;51986;52.788;41.368;2022-07-29T05:17:33;48.00;39.00;32.00
65383;PMS5003;51986;52.788;41.368;2022-07-29T05:20:00;50.25;41.00;35.50
65383;PMS5003;51986;52.788;41.368;2022-07-29T05:22:28;49.00;40.00;35.00
65383;PMS5003;51986;52.788;41.368;2022-07-29T05:24:58;49.00;40.00;34.00
65383;PMS5003;51986;52.788;41.368;2022-07-29T05:27:28;50.75;40.50;35.25
65383;PMS5003;51986;52.788;41.368;2022-07-29T05:29:55;51.00;41.00;35.50
65383;PMS5003;51986;52.788;41.368;2022-07-29T05:32:22;52.00;42.00;36.00
65383;PMS5003;51986;52.788;41.368;2022-07-29T05:34:49;50.75;41.00;33.00
65383;PMS5003;51986;52.788;41.368;2022-07-29T05:37:18;49.00;40.00;33.00
65383;PMS5003;51986;52.788;41.368;2022-07-29T05:39:46;50.25;41.00;35.00
65383;PMS5003;51986;52.788;41.368;2022-07-29T05:42:16;52.00;42.00;36.00
65383;PMS5003;51986;52.788;41.368;2022-07-29T05:44:43;52.00;41.50;35.50
65383;PMS5003;51986;52.788;41.368;2022-07-29T05:47:10;51.00;41.50;34.50
65383;PMS5003;51986;52.788;41.368;2022-07-29T05:49:36;52.00;42.50;36.50
65383;PMS5003;51986;52.788;41.368;2022-07-29T05:52:03;52.00;42.00;36.00
65383;PMS5003;51986;52.788;41.368;2022-07-29T05:54:31;52.75;43.00;36.00
65383;PMS5003;51986;52.788;41.368;2022-07-29T05:56:58;52.00;43.00;36.00
65383;PMS5003;51986;52.788;41.368;2022-07-29T05:59:24;52.25;42.50;36.25
65383;PMS5003;51986;52.788;41.368;2022-07-29T06:01:56;52.00;43.00;35.00
65383;PMS5003;51986;52.788;41.368;2022-07-29T06:04:23;52.00;42.50;35.00
65383;PMS5003;51986;52.788;41.368;2022-07-29T06:06:50;52.25;42.00;35.50
65383;PMS5003;51986;52.788;41.368;2022-07-29T06:09:23;53.00;43.00;36.00
65383;PMS5003;51986;52.788;41.368;2022-07-29T06:11:50;53.00;43.00;36.00
65383;PMS5003;51986;52.788;41.368;2022-07-29T06:14:17;53.00;43.00;35.00
65383;PMS5003;51986;52.788;41.368;2022-07-29T06:16:44;54.25;43.00;34.50
65383;PMS5003;51986;52.788;41.368;2022-07-29T06:19:12;54.50;43.00;34.50
65383;PMS5003;51986;52.788;41.368;2022-07-29T06:21:43;54.25;44.75;36.00
65383;PMS5003;51986;52.788;41.368;2022-07-29T06:24:10;53.00;44.00;36.00
65383;PMS5003;51986;52.788;41.368;2022-07-29T06:26:39;53.75;43.00;35.75
65383;PMS5003;51986;52.788;41.368;2022-07-29T06:29:07;52.50;42.50;36.00
65383;PMS5003;51986;52.788;41.368;2022-07-29T06:31:34;56.75;47.00;38.00
65383;PMS5003;51986;52.788;41.368;2022-07-29T06:34:01;55.25;45.75;37.00
65383;PMS5003;51986;52.788;41.368;2022-07-29T06:36:30;54.75;45.25;36.00
65383;PMS5003;51986;52.788;41.368;2022-07-29T06:38:57;54.00;43.00;36.00
65383;PMS5003;51986;52.788;41.368;2022-07-29T06:41:24;53.00;44.75;35.25
65383;PMS5003;51986;52.788;41.368;2022-07-29T06:43:54;54.00;43.00;36.00
65383;PMS5003;51986;52.788;41.368;2022-07-29T06:46:22;52.00;41.00;34.00
65383;PMS5003;51986;52.788;41.368;2022-07-29T06:48:54;50.00;41.00;32.00
65383;PMS5003;51986;52.788;41.368;2022-07-29T06:51:21;54.00;44.25;37.00
65383;PMS5003;51986;52.788;41.368;2022-07-29T06:53:59;52.00;42.00;35.00
65383;PMS5003;51986;52.788;41.368;2022-07-29T06:56:32;52.25;42.00;34.00
65383;PMS5003;51986;52.788;41.368;2022-07-29T06:59:06;53.00;44.25;36.25
65383;PMS5003;51986;52.788;41.368;2022-07-29T07:01:45;53.00;41.50;35.00
65383;PMS5003;51986;52.788;41.368;2022-07-29T07:04:12;52.50;42.00;35.50
65383;PMS5003;51986;52.788;41.368;2022-07-29T07:06:40;51.00;41.00;34.00
65383;PMS5003;51986;52.788;41.368;2022-07-29T07:09:08;51.00;40.25;32.00
65383;PMS5003;51986;52.788;41.368;2022-07-29T07:11:39;50.75;40.00;32.50
65383;PMS5003;51986;52.788;41.368;2022-07-29T07:14:06;51.00;40.00;34.00
65383;PMS5003;51986;52.788;41.368;2022-07-29T07:16:38;50.50;40.00;34.00
65383;PMS5003;51986;52.788;41.368;2022-07-29T07:19:05;50.75;40.50;34.00
65383;PMS5003;51986;52.788;41.368;2022-07-29T07:21:55;50.00;40.50;34.00
65383;PMS5003;51986;52.788;41.368;2022-07-29T07:24:21;52.00;41.00;33.75
65383;PMS5003;51986;52.788;41.368;2022-07-29T07:26:48;50.75;40.00;33.00
65383;PMS5003;51986;52.788;41.368;2022-07-29T07:29:15;50.00;40.00;33.75
65383;PMS5003;51986;52.788;41.368;2022-07-29T07:31:42;51.00;41.00;34.50
65383;PMS5003;51986;52.788;41.368;2022-07-29T07:34:09;51.00;41.00;34.50
65383;PMS5003;51986;52.788;41.368;2022-07-29T07:36:39;49.00;40.00;32.00
65383;PMS5003;51986;52.788;41.368;2022-07-29T07:39:06;50.00;40.00;33.00
65383;PMS5003;51986;52.788;41.368;2022-07-29T07:44:34;50.00;41.00;33.00
65383;PMS5003;51986;52.788;41.368;2022-07-29T07:47:21;47.25;39.00;32.75
65383;PMS5003;51986;52.788;41.368;2022-07-29T07:49:51;48.50;39.50;32.00
65383;PMS5003;51986;52.788;41.368;2022-07-29T07:52:20;47.50;39.00;31.00
65383;PMS5003;51986;52.788;41.368;2022-07-29T07:54:48;48.50;39.50;32.50
65383;PMS5003;51986;52.788;41.368;2022-07-29T07:57:18;51.00;41.50;35.25
65383;PMS5003;51986;52.788;41.368;2022-07-29T07:59:53;48.00;40.00;34.00
65383;PMS5003;51986;52.788;41.368;2022-07-29T08:02:20;47.00;39.00;32.00
65383;PMS5003;51986;52.788;41.368;2022-07-29T08:04:53;49.00;39.00;32.00
65383;PMS5003;51986;52.788;41.368;2022-07-29T08:07:37;49.00;39.00;32.00
65383;PMS5003;51986;52.788;41.368;2022-07-29T08:10:04;48.00;39.00;31.75
65383;PMS5003;51986;52.788;41.368;2022-07-29T08:12:32;48.00;38.00;31.00
65383;PMS5003;51986;52.788;41.368;2022-07-29T08:14:59;49.00;39.00;32.00
65383;PMS5003;51986;52.788;41.368;2022-07-29T08:17:26;49.00;39.00;31.75
65383;PMS5003;51986;52.788;41.368;2022-07-29T08:19:53;50.75;40.00;33.50
65383;PMS5003;51986;52.788;41.368;2022-07-29T08:22:20;49.00;40.00;32.00
65383;PMS5003;51986;52.788;41.368;2022-07-29T08:24:47;51.50;41.50;33.75
65383;PMS5003;51986;52.788;41.368;2022-07-29T08:27:16;53.00;42.00;35.00
65383;PMS5003;51986;52.788;41.368;2022-07-29T08:30:07;52.00;42.00;35.00
65383;PMS5003;51986;52.788;41.368;2022-07-29T08:32:34;49.00;40.00;34.00
65383;PMS5003;51986;52.788;41.368;2022-07-29T08:35:30;48.00;39.00;32.00
65383;PMS5003;51986;52.788;41.368;2022-07-29T08:38:02;48.75;39.25;32.75
65383;PMS5003;51986;52.788;41.368;2022-07-29T08:40:58;49.00;40.00;33.00
65383;PMS5003;51986;52.788;41.368;2022-07-29T08:43:29;50.00;40.50;33.00
65383;PMS5003;51986;52.788;41.368;2022-07-29T08:45:59;50.00;39.00;32.00
65383;PMS5003;51986;52.788;41.368;2022-07-29T08:48:26;50.00;40.00;33.50
65383;PMS5003;51986;52.788;41.368;2022-07-29T08:50:57;50.50;40.00;33.00
65383;PMS5003;51986;52.788;41.368;2022-07-29T08:53:26;51.00;41.00;35.00
65383;PMS5003;51986;52.788;41.368;2022-07-29T08:55:54;50.00;40.00;34.00
65383;PMS5003;51986;52.788;41.368;2022-07-29T08:58:23;49.00;39.00;32.00
65383;PMS5003;51986;52.788;41.368;2022-07-29T09:00:53;49.00;39.00;32.25
65383;PMS5003;51986;52.788;41.368;2022-07-29T09:03:44;49.75;39.00;34.00
65383;PMS5003;51986;52.788;41.368;2022-07-29T09:06:17;49.75;39.00;32.00
65383;PMS5003;51986;52.788;41.368;2022-07-29T09:11:34;49.00;40.00;32.25
65383;PMS5003;51986;52.788;41.368;2022-07-29T09:14:04;49.00;39.00;33.75
65383;PMS5003;51986;52.788;41.368;2022-07-29T09:16:57;48.00;39.50;33.00
65383;PMS5003;51986;52.788;41.368;2022-07-29T09:19:26;48.00;39.00;32.75
65383;PMS5003;51986;52.788;41.368;2022-07-29T09:21:57;51.25;42.00;35.00
65383;PMS5003;51986;52.788;41.368;2022-07-29T09:24:42;52.00;42.00;35.00
65383;PMS5003;51986;52.788;41.368;2022-07-29T09:27:12;52.00;41.50;35.00
65383;PMS5003;51986;52.788;41.368;2022-07-29T09:29:58;50.50;40.00;34.00
65383;PMS5003;51986;52.788;41.368;2022-07-29T09:32:37;48.00;39.00;33.00
65383;PMS5003;51986;52.788;41.368;2022-07-29T09:35:29;48.00;38.50;32.00
65383;PMS5003;51986;52.788;41.368;2022-07-29T09:37:57;49.00;39.00;34.00
65383;PMS5003;51986;52.788;41.368;2022-07-29T09:40:27;48.00;39.75;33.00
65383;PMS5003;51986;52.788;41.368;2022-07-29T09:42:54;49.00;39.00;32.00
65383;PMS5003;51986;52.788;41.368;2022-07-29T09:45:35;48.50;39.75;33.00
65383;PMS5003;51986;52.788;41.368;2022-07-29T09:48:21;51.00;40.75;34.00
65383;PMS5003;51986;52.788;41.368;2022-07-29T09:50:49;48.00;40.00;33.00
65383;PMS5003;51986;52.788;41.368;2022-07-29T09:53:30;49.50;39.00;33.00
65383;PMS5003;51986;52.788;41.368;2022-07-29T09:56:04;50.25;40.00;33.00
65383;PMS5003;51986;52.788;41.368;2022-07-29T09:58:35;53.75;42.00;37.25
65383;PMS5003;51986;52.788;41.368;2022-07-29T10:01:01;49.00;40.00;34.00
65383;PMS5003;51986;52.788;41.368;2022-07-29T10:03:29;48.00;39.00;33.00
65383;PMS5003;51986;52.788;41.368;2022-07-29T10:08:38;47.75;38.75;33.00
65383;PMS5003;51986;52.788;41.368;2022-07-29T10:11:09;50.00;40.00;35.00
65383;PMS5003;51986;52.788;41.368;2022-07-29T10:13:42;48.00;39.00;33.00
65383;PMS5003;51986;52.788;41.368;2022-07-29T10:16:11;48.00;38.00;31.00
65383;PMS5003;51986;52.788;41.368;2022-07-29T10:18:40;51.25;41.00;35.00
65383;PMS5003;51986;52.788;41.368;2022-07-29T10:21:08;48.00;39.00;33.00
65383;PMS5003;51986;52.788;41.368;2022-07-29T10:23:38;48.00;39.50;33.00
65383;PMS5003;51986;52.788;41.368;2022-07-29T10:26:12;48.00;39.00;33.00
65383;PMS5003;51986;52.788;41.368;2022-07-29T10:28:42;47.00;39.00;33.00
65383;PMS5003;51986;52.788;41.368;2022-07-29T10:31:14;47.50;38.75;32.50
65383;PMS5003;51986;52.788;41.368;2022-07-29T10:42:28;45.00;37.00;31.50
65383;PMS5003;51986;52.788;41.368;2022-07-29T10:45:00;48.00;38.50;33.00
65383;PMS5003;51986;52.788;41.368;2022-07-29T10:47:30;48.00;38.50;33.00
65383;PMS5003;51986;52.788;41.368;2022-07-29T10:55:35;46.75;38.00;33.00
65383;PMS5003;51986;52.788;41.368;2022-07-29T11:01:30;45.00;36.50;32.00
65383;PMS5003;51986;52.788;41.368;2022-07-29T11:04:03;45.00;37.00;31.00
65383;PMS5003;51986;52.788;41.368;2022-07-29T11:09:32;44.50;36.50;30.00
65383;PMS5003;51986;52.788;41.368;2022-07-29T11:12:08;44.00;36.25;30.50
65383;PMS5003;51986;52.788;41.368;2022-07-29T11:15:05;43.00;36.00;30.00
65383;PMS5003;51986;52.788;41.368;2022-07-29T11:26:18;43.00;37.00;30.00
65383;PMS5003;51986;52.788;41.368;2022-07-29T11:28:50;43.00;36.00;30.00
65383;PMS5003;51986;52.788;41.368;2022-07-29T11:31:47;44.00;37.00;31.00
65383;PMS5003;51986;52.788;41.368;2022-07-29T11:39:36;44.00;37.00;30.00
65383;PMS5003;51986;52.788;41.368;2022-07-29T11:45:02;41.00;35.00;28.00
65383;PMS5003;51986;52.788;41.368;2022-07-29T11:47:53;41.00;34.50;29.00
65383;PMS5003;51986;52.788;41.368;2022-07-29T11:50:32;43.00;35.50;30.00
65383;PMS5003;51986;52.788;41.368;2022-07-29T11:53:02;40.75;34.00;28.75
65383;PMS5003;51986;52.788;41.368;2022-07-29T11:55:38;42.00;35.25;30.50
65383;PMS5003;51986;52.788;41.368;2022-07-29T11:58:26;43.00;36.00;29.00
65383;PMS5003;51986;52.788;41.368;2022-07-29T12:00:54;42.00;35.00;29.00
65383;PMS5003;51986;52.788;41.368;2022-07-29T12:03:26;42.00;35.00;29.00
65383;PMS5003;51986;52.788;41.368;2022-07-29T12:08:48;41.00;34.00;28.00
65383;PMS5003;51986;52.788;41.368;2022-07-29T12:11:18;41.00;35.00;28.75
65383;PMS5003;51986;52.788;41.368;2022-07-29T12:13:47;42.00;35.00;29.00
65383;PMS5003;51986;52.788;41.368;2022-07-29T12:16:18;41.00;34.00;29.00
65383;PMS5003;51986;52.788;41.368;2022-07-29T12:18:57;41.00;34.75;30.00
65383;PMS5003;51986;52.788;41.368;2022-07-29T12:21:29;41.50;35.00;29.00
65383;PMS5003;51986;52.788;41.368;2022-07-29T12:24:21;43.00;36.00;30.00
65383;PMS5003;51986;52.788;41.368;2022-07-29T12:26:56;43.00;36.00;29.00
65383;PMS5003;51986;52.788;41.368;2022-07-29T12:29:24;44.00;36.00;29.00
65383;PMS5003;51986;52.788;41.368;2022-07-29T12:32:01;41.00;34.00;27.00
65383;PMS5003;51986;52.788;41.368;2022-07-29T12:34:30;41.50;35.00;28.75
65383;PMS5003;51986;52.788;41.368;2022-07-29T12:36:58;42.50;35.50;30.00
65383;PMS5003;51986;52.788;41.368;2022-07-29T12:39:25;42.75;36.00;29.75
65383;PMS5003;51986;52.788;41.368;2022-07-29T12:41:52;43.00;36.00;30.00
65383;PMS5003;51986;52.788;41.368;2022-07-29T12:44:47;45.00;37.00;31.00
65383;PMS5003;51986;52.788;41.368;2022-07-29T12:47:15;45.00;38.00;31.00
65383;PMS5003;51986;52.788;41.368;2022-07-29T12:49:46;41.50;35.50;29.00
65383;PMS5003;51986;52.788;41.368;2022-07-29T12:52:24;42.00;35.25;29.00
65383;PMS5003;51986;52.788;41.368;2022-07-29T12:54:54;43.00;36.00;30.00
65383;PMS5003;51986;52.788;41.368;2022-07-29T12:57:21;42.00;35.00;30.00
65383;PMS5003;51986;52.788;41.368;2022-07-29T13:00:08;42.25;36.25;30.00
65383;PMS5003;51986;52.788;41.368;2022-07-29T13:02:38;42.00;35.00;30.00
65383;PMS5003;51986;52.788;41.368;2022-07-29T13:05:07;41.00;34.50;28.00
65383;PMS5003;51986;52.788;41.368;2022-07-29T13:07:35;41.50;34.50;29.50
65383;PMS5003;51986;52.788;41.368;2022-07-29T13:10:22;41.25;35.00;29.00
65383;PMS5003;51986;52.788;41.368;2022-07-29T13:15:33;43.00;36.00;30.00
65383;PMS5003;51986;52.788;41.368;2022-07-29T13:18:01;45.00;37.00;32.00
65383;PMS5003;51986;52.788;41.368;2022-07-29T13:20:28;44.00;36.00;31.00
65383;PMS5003;51986;52.788;41.368;2022-07-29T13:22:59;45.00;37.00;30.00
65383;PMS5003;51986;52.788;41.368;2022-07-29T13:25:28;45.50;37.00;32.50
65383;PMS5003;51986;52.788;41.368;2022-07-29T13:27:56;44.00;36.00;31.00
65383;PMS5003;51986;52.788;41.368;2022-07-29T13:30:24;44.00;35.75;30.00
65383;PMS5003;51986;52.788;41.368;2022-07-29T13:32:52;44.00;36.00;31.50
65383;PMS5003;51986;52.788;41.368;2022-07-29T13:35:19;43.00;36.00;30.50
65383;PMS5003;51986;52.788;41.368;2022-07-29T13:37:46;44.00;36.00;29.75
65383;PMS5003;51986;52.788;41.368;2022-07-29T13:40:14;44.00;36.00;30.00
65383;PMS5003;51986;52.788;41.368;2022-07-29T13:42:44;43.00;36.00;30.50
65383;PMS5003;51986;52.788;41.368;2022-07-29T13:45:12;45.00;38.00;32.50
65383;PMS5003;51986;52.788;41.368;2022-07-29T13:47:39;45.00;37.50;32.00
65383;PMS5003;51986;52.788;41.368;2022-07-29T13:50:14;45.00;38.00;31.75
65383;PMS5003;51986;52.788;41.368;2022-07-29T13:52:41;45.00;36.50;31.00
65383;PMS5003;51986;52.788;41.368;2022-07-29T13:55:08;44.00;36.00;31.00
65383;PMS5003;51986;52.788;41.368;2022-07-29T13:57:53;44.00;36.50;31.00
65383;PMS5003;51986;52.788;41.368;2022-07-29T14:00:20;43.00;36.00;30.00
65383;PMS5003;51986;52.788;41.368;2022-07-29T14:02:47;43.00;36.00;29.25
65383;PMS5003;51986;52.788;41.368;2022-07-29T14:05:14;43.00;36.00;30.00
65383;PMS5003;51986;52.788;41.368;2022-07-29T14:07:41;43.00;36.00;29.75
65383;PMS5003;51986;52.788;41.368;2022-07-29T14:10:09;44.00;36.00;31.00
65383;PMS5003;51986;52.788;41.368;2022-07-29T14:12:36;45.50;37.75;33.00
65383;PMS5003;51986;52.788;41.368;2022-07-29T14:15:23;44.00;36.00;31.00
65383;PMS5003;51986;52.788;41.368;2022-07-29T14:17:50;42.00;35.00;30.00
65383;PMS5003;51986;52.788;41.368;2022-07-29T14:20:17;41.75;35.00;29.50
65383;PMS5003;51986;52.788;41.368;2022-07-29T14:22:43;42.50;35.00;29.00
65383;PMS5003;51986;52.788;41.368;2022-07-29T14:25:11;41.00;34.00;27.00
65383;PMS5003;51986;52.788;41.368;2022-07-29T14:30:28;41.00;35.00;29.00
65383;PMS5003;51986;52.788;41.368;2022-07-29T14:32:54;41.00;35.00;29.00
65383;PMS5003;51986;52.788;41.368;2022-07-29T14:35:21;41.00;34.50;29.00
65383;PMS5003;51986;52.788;41.368;2022-07-29T14:37:48;41.00;34.00;28.00
65383;PMS5003;51986;52.788;41.368;2022-07-29T14:40:15;40.00;34.00;27.50
65383;PMS5003;51986;52.788;41.368;2022-07-29T14:42:42;39.00;34.00;26.75
65383;PMS5003;51986;52.788;41.368;2022-07-29T14:45:09;38.00;33.00;26.00
65383;PMS5003;51986;52.788;41.368;2022-07-29T14:47:37;40.00;34.00;28.50
65383;PMS5003;51986;52.788;41.368;2022-07-29T14:50:05;41.00;34.00;29.00
65383;PMS5003;51986;52.788;41.368;2022-07-29T14:52:32;42.00;35.75;30.00
65383;PMS5003;51986;52.788;41.368;2022-07-29T14:55:03;41.00;34.00;29.00
65383;PMS5003;51986;52.788;41.368;2022-07-29T14:57:41;40.00;35.00;28.00
65383;PMS5003;51986;52.788;41.368;2022-07-29T15:00:08;40.00;34.00;28.00
65383;PMS5003;51986;52.788;41.368;2022-07-29T15:02:36;42.00;35.00;29.00
65383;PMS5003;51986;52.788;41.368;2022-07-29T15:05:23;41.00;34.00;27.00
65383;PMS5003;51986;52.788;41.368;2022-07-29T15:07:54;40.00;33.75;27.75
65383;PMS5003;51986;52.788;41.368;2022-07-29T15:10:21;40.00;34.00;28.50
65383;PMS5003;51986;52.788;41.368;2022-07-29T15:12:53;41.00;34.00;28.00
65383;PMS5003;51986;52.788;41.368;2022-07-29T15:15:22;40.50;34.50;28.50
65383;PMS5003;51986;52.788;41.368;2022-07-29T15:17:52;41.00;34.00;29.00